• Join FlightAware (Why Join?)
  • Login
  • US Flag 
06:41AM EST


 

Airport Tracker/Info


-or-


 

Live Flight TrackerFlight Track Log ✈ ASQ4219 ✈ 17-Jun-2013 ✈ KELP - KIAH

Flight Track Log - Related Links

Times and Time Zones

All times are in EDT time to prevent confusion due to time zone crossing. See the ASQ4219 flight status page for this flight to view local times or setup timezone preferences in your user account.

Time Position Orientation Groundspeed Altitude Reporting Facility
EDT Latitude Longitude Course Direction KTS MPH feet Rate Location/Type
11:14AM 31.7967 -106.4067 96° East 194 223 4,400  Level Albuquerque Center
11:14AM 31.7811 -106.4156 206° Southwest 197 227 5,200 1,320 Climbing Albuquerque Center
11:15AM 31.7647 -106.4150 178° South 199 229 5,500 960 Climbing Albuquerque Center
11:16AM 31.7222 -106.3594 132° Southeast 231 266 6,700 1,200 Climbing Albuquerque Center
11:17AM 31.7381 -105.8572 96° East  Level FlightAware Approximate
11:17AM 31.7125 -106.2522 96° East 279 321 8,100  Level Albuquerque Center
11:18AM 31.7232 -105.7293 100° East  Level FlightAware Approximate
11:18AM 31.7042 -106.1589 96° East 287 330 9,900  Level Albuquerque Center
11:19AM 31.7092 -105.6012 96° East  Level FlightAware Approximate
11:19AM 31.6953 -106.0619 96° East 299 344 10,600  Level Albuquerque Center
11:20AM 31.6861 -105.9519 96° East 334 384 11,300 780 Climbing Albuquerque Center
11:21AM 31.6772 -105.8383 95° East 348 400 12,300 960 Climbing Albuquerque Center
11:22AM 31.6653 -105.7239 97° East 353 406 13,300 960 Climbing Albuquerque Center
11:23AM 31.6533 -105.6058 97° East 362 417 14,300 1,020 Climbing Albuquerque Center
11:24AM 31.6397 -105.4608 96° East 371 427 15,500 1,020 Climbing Albuquerque Center
11:25AM 31.6278 -105.3381 96° East 376 433 16,500 960 Climbing Albuquerque Center
11:26AM 31.6214 -105.2139 93° East 380 437 17,500 900 Climbing Albuquerque Center
11:27AM 31.6294 -105.0864 86° East 388 447 18,400 900 Climbing Albuquerque Center
11:28AM 31.6361 -104.9592 86° East 390 449 19,400 1,020 Climbing Albuquerque Center
11:29AM 31.6253 -104.8308 96° East 395 455 20,500 1,200 Climbing Albuquerque Center
11:30AM 31.6111 -104.7044 97° East 392 451 21,900 1,260 Climbing Albuquerque Center
11:31AM 31.5942 -104.5528 97° East 390 449 23,200 1,080 Climbing Albuquerque Center
11:32AM 31.5806 -104.4261 97° East 391 450 24,200 960 Climbing Albuquerque Center
11:33AM 31.5653 -104.2969 98° East 397 457 25,200 960 Climbing Albuquerque Center
11:34AM 31.5506 -104.1681 98° East 399 459 26,200 960 Climbing Albuquerque Center
11:35AM 31.5361 -104.0369 97° East 403 464 27,200 900 Climbing Albuquerque Center
11:36AM 31.5192 -103.9064 99° East 406 467 28,100 900 Climbing Albuquerque Center
11:37AM 31.5025 -103.7694 98° East 408 470 29,100 1,020 Climbing Albuquerque Center
11:38AM 31.4836 -103.6089 98° East 414 476 30,300 900 Climbing Albuquerque Center
11:39AM 31.4675 -103.4756 98° East 415 478 31,000 300 Climbing Albuquerque Center
11:40AM 31.4472 -103.3356 100° East 429 494 31,000  Level Albuquerque Center
11:41AM 31.4297 -103.1867 98° East 454 522 31,000 60 Level Albuquerque Center
11:43AM 31.4097 -103.0325 99° East 472 543 31,200 480 Climbing Albuquerque Center
11:44AM 31.3886 -102.8806 99° East 476 548 32,100 720 Climbing Albuquerque Center
11:45AM 31.3700 -102.7319 98° East 465 535 32,800 660 Climbing Albuquerque Center
11:46AM 31.3467 -102.5539 99° East 464 534 33,500 780 Climbing Albuquerque Center
11:47AM 31.3286 -102.4203 99° East 476 548 34,500 720 Climbing Albuquerque Center
11:48AM 31.3067 -102.2472 98° East 458 527 35,000 240 Climbing Albuquerque Center
11:49AM 31.2922 -102.1200 98° East 474 545 35,000  Level Houston Center
11:50AM 31.2703 -101.9700 100° East 469 540 35,000  Level Houston Center
11:51AM 31.2489 -101.8181 99° East 472 543 35,000  Level Houston Center
11:52AM 31.2281 -101.6681 99° East 471 542 35,000  Level Houston Center
11:53AM 31.2028 -101.4869 99° East 470 541 35,000  Level Houston Center
11:54AM 31.1811 -101.3364 100° East 472 543 35,000  Level Houston Center
11:55AM 31.1617 -101.2014 100° East 469 540 35,000 -60 Level Houston Center
11:56AM 31.1414 -101.0497 99° East 472 543 34,900  Descending Houston Center
11:57AM 31.1150 -100.8697 100° East 470 541 35,000  Climbing Houston Center
11:58AM 31.0936 -100.7172 99° East 474 545 35,000  Level Houston Center
11:59AM 31.0708 -100.5647 100° East 476 548 35,000  Level Houston Center
12:00PM 31.0492 -100.4119 99° East 476 548 35,000  Level Houston Center
12:01PM 31.0272 -100.2606 100° East 474 545 35,000 -60 Level Houston Center
12:02PM 31.0033 -100.1114 101° East 469 540 34,900  Descending Houston Center
12:03PM 30.9789 -99.9331 99° East 464 534 35,000  Climbing Houston Center
12:04PM 30.9719 -99.7836 93° East 461 531 35,000  Level Houston Center
12:05PM 30.9675 -99.6322 92° East 466 536 35,000 -60 Level Houston Center
12:06PM 30.9633 -99.4775 92° East 475 547 34,900  Descending Houston Center
12:07PM 30.9586 -99.3225 92° East 478 550 35,000  Climbing Houston Center
12:08PM 30.9517 -99.1511 93° East 475 547 35,000  Level Houston Center
12:09PM 30.9467 -98.9958 92° East 474 545 35,000  Level Houston Center
12:10PM 30.9422 -98.8406 92° East 475 547 35,000  Level Houston Center
12:11PM 30.9361 -98.6864 93° East 474 545 35,000  Level Houston Center
12:12PM 30.9314 -98.5322 92° East 472 543 35,000  Level Houston Center
12:13PM 30.9233 -98.3519 93° East 473 544 35,000  Level Houston Center
12:14PM 30.9167 -98.1994 93° East 470 541 35,000  Level Houston Center
12:15PM 30.9111 -98.0469 92° East 468 539 35,000  Level Houston Center
12:16PM 30.9050 -97.8997 93° East 455 524 35,000  Level Houston Center
12:18PM 30.8992 -97.7556 93° East 444 511 35,000  Level Houston Center
12:19PM 30.8922 -97.6103 93° East 446 513 35,000  Level Houston Center
12:20PM 30.8850 -97.4650 93° East 448 516 35,000  Level Houston Center
12:21PM 30.8789 -97.3006 92° East 455 524 35,000 -300 Level Houston Center
12:22PM 30.8703 -97.1508 94° East 458 527 34,400 -1,500 Descending Houston Center
12:23PM 30.8317 -97.0100 108° East 454 522 32,000 -2,520 Descending Houston Center
12:24PM 30.7842 -96.8664 111° Southeast 466 536 29,300 -2,880 Descending Houston Center
12:25PM 30.7267 -96.6961 111° Southeast 479 551 26,100 -2,880 Descending Houston Center
12:26PM 30.6778 -96.5458 111° Southeast 489 563 23,400 -2,580 Descending Houston Center
12:27PM 30.6325 -96.4017 110° East 474 545 20,800 -2,460 Descending Houston Center
12:28PM 30.5878 -96.2686 111° Southeast 441 507 18,400 -2,280 Descending Houston Center
12:29PM 30.5478 -96.1464 111° Southeast 406 467 16,200 -2,220 Descending Houston Center
12:30PM 30.5017 -96.0103 111° Southeast 405 466 13,900 -2,040 Descending Houston Center
12:31PM 30.4608 -95.8919 112° Southeast 399 459 12,100 -1,020 Descending Houston Center
12:32PM 30.3931 -95.7994 130° Southeast 383 441 11,900 -540 Descending Houston Center
12:33PM 30.3150 -95.7186 138° Southeast 377 434 11,100 -840 Descending Houston Center
12:34PM 30.2442 -95.6433 137° Southeast 352 405 10,200 -1,740 Descending Houston Center
12:35PM 30.1739 -95.5764 141° Southeast 294 338 7,600 -2,040 Descending Houston Center
12:36PM 30.1156 -95.5114 136° Southeast 287 330 6,000 -780 Descending Houston Center
12:37PM 30.1058 -95.4231 97° East 283 326 6,000  Level Houston Center
12:38PM 30.1092 -95.3400 87° East 265 305 6,000  Level Houston Center
12:39PM 30.1064 -95.2611 92° East 251 289 6,000 -840 Level Houston Center
12:40PM 30.0964 -95.1872 99° East 225 259 4,300 -1,860 Descending Houston Center
12:41PM 30.0389 -95.1797 174° South 210 242 2,300 -1,200 Descending Houston Center
12:42PM 30.0067 -95.2297 233° Southwest 199 229 1,800 -660 Descending Houston Center
12:43PM 30.0081 -95.2775 272° West 128 147 1,000 -900 Descending Houston Center